Red Rock, Oklahoma
Current Conditions -  °F | °C
As of 10:53 AM on Monday 22 Dec 2014 (Local Time) from KPNC Reporting Station
Haze Haze  
Wind Chill: 50°   Ceiling: 1100
Heat Index: 50°   Visibility: 3mi
Dew Point: 47°   Wind: 6mph
Humidity: 89%   Direction: 280°W
Pressure: 29.58"   Gusts: NA
Location:  36.46°N, 97.18°W
Report Text: KPNC 221653Z AUTO 28005KT 3SM BR FEW006 OVC011 10/08 A2958 RMK AO2 SLP015 T01000083
Loading
Personal Weather Stations






























Interactive Weather Map New forecast layout! Learn more

10-Day Weather Forecast

Advertisements
Track Severe Weather on mobile